createdAt,value
2017-08-24T00:00:03.301Z,13.4
2017-08-24T00:05:03.054Z,13.3
2017-08-24T00:10:03.293Z,13.3
2017-08-24T00:15:03.115Z,13.3
2017-08-24T00:20:03.015Z,13.2
2017-08-24T00:25:05.360Z,13.2
2017-08-24T00:30:03.126Z,13.2
2017-08-24T00:35:02.933Z,13.2
2017-08-24T00:40:17.063Z,13.1
2017-08-24T00:45:02.822Z,13.1
2017-08-24T00:50:02.624Z,13.1
2017-08-24T00:55:15.085Z,12.9
2017-08-24T01:00:05.416Z,12.9
2017-08-24T01:05:03.165Z,12.9
2017-08-24T01:10:02.415Z,12.8
2017-08-24T01:15:10.796Z,12.8
2017-08-24T01:20:02.629Z,12.8
2017-08-24T01:30:05.216Z,12.6
2017-08-24T01:35:02.733Z,12.6
2017-08-24T01:40:08.012Z,12.5
2017-08-24T01:45:02.729Z,12.5
2017-08-24T01:50:05.053Z,12.4
2017-08-24T01:55:05.342Z,12.4
2017-08-24T02:00:03.080Z,12.4
2017-08-24T02:05:07.952Z,12.4
2017-08-24T02:10:05.716Z,12.4
2017-08-24T02:15:22.707Z,12.3
2017-08-24T02:20:02.525Z,12.3
2017-08-24T02:25:08.333Z,12.2
2017-08-24T02:30:03.063Z,12.2
2017-08-24T02:35:02.826Z,12.2
2017-08-24T02:40:08.109Z,12.1
2017-08-24T02:45:05.411Z,12
2017-08-24T02:50:05.708Z,12
2017-08-24T02:55:05.008Z,12
2017-08-24T03:00:02.775Z,12
2017-08-24T03:05:05.073Z,11.9
2017-08-24T03:10:03.222Z,11.9
2017-08-24T03:15:20.705Z,11.8
2017-08-24T03:20:02.499Z,11.8
2017-08-24T03:25:03.242Z,11.8
2017-08-24T03:30:08.079Z,11.7
2017-08-24T03:35:05.371Z,11.7
2017-08-24T03:40:35.459Z,11.7
2017-08-24T03:45:03.199Z,11.7
2017-08-24T03:50:02.968Z,11.7
2017-08-24T03:55:12.862Z,11.6
2017-08-24T04:00:38.012Z,11.5
2017-08-24T04:05:02.727Z,11.6
2017-08-24T04:10:02.961Z,11.5
2017-08-24T04:15:02.709Z,11.5
2017-08-24T04:20:05.043Z,11.5
2017-08-24T04:25:15.455Z,11.4
2017-08-24T04:30:03.178Z,11.4
2017-08-24T04:35:05.492Z,11.5
2017-08-24T04:40:07.782Z,11.5
2017-08-24T04:45:05.029Z,11.5
2017-08-24T04:50:17.985Z,11.5
2017-08-24T04:55:02.775Z,11.5
2017-08-24T05:00:05.103Z,11.6
2017-08-24T05:05:02.836Z,11.6
2017-08-24T05:10:18.275Z,11.8
2017-08-24T05:15:10.604Z,11.9
2017-08-24T05:20:17.649Z,12
2017-08-24T05:25:07.463Z,12.1
2017-08-24T05:30:05.747Z,12.2
2017-08-24T05:35:02.481Z,12.2
2017-08-24T05:40:05.254Z,12.4
2017-08-24T05:45:10.604Z,12.5
2017-08-24T05:50:05.871Z,12.7
2017-08-24T05:55:25.378Z,12.9
2017-08-24T06:00:05.660Z,13.1
2017-08-24T06:05:12.607Z,13.3
2017-08-24T06:10:02.836Z,13.3
2017-08-24T06:15:02.595Z,13.4
2017-08-24T06:20:02.395Z,13.6
2017-08-24T06:25:23.372Z,13.9
2017-08-24T06:30:03.115Z,13.9
2017-08-24T06:35:07.942Z,14.1
2017-08-24T06:40:05.719Z,14.2
2017-08-24T06:45:15.145Z,14.3
2017-08-24T06:50:02.913Z,14.3
2017-08-24T06:55:05.203Z,14.5
2017-08-24T07:00:08.021Z,14.7
2017-08-24T07:05:02.829Z,14.7
2017-08-24T07:10:03.072Z,14.9
2017-08-24T07:15:02.849Z,15
2017-08-24T07:20:02.721Z,15.1
2017-08-24T07:25:05.068Z,15.4
2017-08-24T07:30:02.783Z,15.4
2017-08-24T07:35:07.613Z,15.9
2017-08-24T07:40:05.382Z,16.2
2017-08-24T07:45:20.880Z,16.5
2017-08-24T07:50:05.113Z,16.7
2017-08-24T07:55:07.937Z,16.9
2017-08-24T08:00:02.688Z,16.9
2017-08-24T08:05:17.630Z,17.5
2017-08-24T08:10:05.367Z,17.9
2017-08-24T08:15:03.198Z,17.8
2017-08-24T08:20:05.618Z,18.4
2017-08-24T08:25:04.876Z,18.6
2017-08-24T08:30:02.619Z,18.6
2017-08-24T08:35:20.052Z,19.1
2017-08-24T08:40:13.375Z,19.3
2017-08-24T08:45:05.676Z,19.5
2017-08-24T08:50:04.960Z,19.6
2017-08-24T08:55:17.884Z,19.7
2017-08-24T09:00:02.648Z,19.7
2017-08-24T09:05:02.421Z,19.7
2017-08-24T09:10:12.788Z,19.8
2017-08-24T09:15:02.543Z,19.8
2017-08-24T09:20:02.400Z,19.8
2017-08-24T09:25:05.690Z,19.8
2017-08-24T09:30:07.499Z,19.7
2017-08-24T09:35:05.763Z,19.6
2017-08-24T09:40:08.016Z,19.4
2017-08-24T09:45:17.948Z,19.3
2017-08-24T09:50:07.738Z,19.2
2017-08-24T09:55:07.595Z,19.1
2017-08-24T10:00:02.363Z,19.1
2017-08-24T10:05:08.219Z,19
2017-08-24T10:10:04.963Z,19
2017-08-24T10:15:02.709Z,19
2017-08-24T10:20:02.522Z,19.1
2017-08-24T10:25:08.345Z,19.1
2017-08-24T10:30:03.081Z,19.2
2017-08-24T10:35:10.645Z,19.4
2017-08-24T10:40:02.834Z,19.4
2017-08-24T10:45:05.116Z,19.8
2017-08-24T10:50:02.851Z,19.8
2017-08-24T10:55:10.235Z,20.4
2017-08-24T11:00:13.124Z,20.6
2017-08-24T11:05:05.436Z,20.9
2017-08-24T11:10:12.787Z,21.1
2017-08-24T11:15:02.497Z,21.1
2017-08-24T11:20:05.861Z,20.9
2017-08-24T11:25:02.568Z,20.9
2017-08-24T11:30:03.352Z,20.9
2017-08-24T11:35:18.289Z,20.9
2017-08-24T11:40:04.970Z,20.9
2017-08-24T11:45:07.783Z,20.9
2017-08-24T11:50:07.693Z,21
2017-08-24T11:55:02.459Z,21
2017-08-24T12:00:04.935Z,20.8
2017-08-24T12:05:05.209Z,20.6
2017-08-24T12:10:10.016Z,20.5
2017-08-24T12:15:02.749Z,20.5
2017-08-24T12:20:02.611Z,20.5
2017-08-24T12:25:02.345Z,20.5
2017-08-24T12:30:03.123Z,20.3
2017-08-24T12:35:15.548Z,20.5
2017-08-24T12:40:17.947Z,21.2
2017-08-24T12:45:05.266Z,21.8
2017-08-24T12:50:05.550Z,22.2
2017-08-24T12:55:05.872Z,22.6
2017-08-24T13:00:02.638Z,22.5
2017-08-24T13:05:17.591Z,22.1
2017-08-24T13:10:10.373Z,21.8
2017-08-24T13:15:03.133Z,21.8
2017-08-24T13:20:18.175Z,21.9
2017-08-24T13:25:07.983Z,21.5
2017-08-24T13:30:05.301Z,21.3
2017-08-24T13:35:08.139Z,21
2017-08-24T13:40:02.368Z,21
2017-08-24T13:45:03.122Z,20.9
2017-08-24T13:50:15.553Z,20.8
2017-08-24T13:55:08.392Z,20.8
2017-08-24T14:00:03.162Z,20.8
2017-08-24T14:05:05.468Z,20.8
2017-08-24T14:10:10.316Z,21
2017-08-24T14:15:05.554Z,21.9
2017-08-24T14:20:02.394Z,21.9
2017-08-24T14:25:05.692Z,21.7
2017-08-24T14:30:22.671Z,21.5
2017-08-24T14:35:04.951Z,21.3
2017-08-24T14:40:08.267Z,21.3
2017-08-24T14:45:03.010Z,21.3
2017-08-24T14:50:05.299Z,21.4
2017-08-24T14:55:05.572Z,21.6
2017-08-24T15:00:05.788Z,22
2017-08-24T15:05:02.551Z,22
2017-08-24T15:10:07.839Z,22.6
2017-08-24T15:15:02.564Z,22.6
2017-08-24T15:20:04.993Z,22.5
2017-08-24T15:25:05.267Z,22.5
2017-08-24T15:30:10.650Z,23
2017-08-24T15:35:20.136Z,23.3
2017-08-24T15:40:07.496Z,23.5
2017-08-24T15:45:15.949Z,23.4
2017-08-24T15:50:02.728Z,23.4
2017-08-24T15:55:05.009Z,23.3
2017-08-24T16:00:15.398Z,23.3
2017-08-24T16:05:03.151Z,23.3
2017-08-24T16:10:02.435Z,23.2
2017-08-24T16:15:05.750Z,23
2017-08-24T16:20:05.122Z,22.9
2017-08-24T16:25:02.914Z,22.9
2017-08-24T16:30:02.623Z,22.8
2017-08-24T16:35:09.973Z,22.4
2017-08-24T16:40:03.181Z,22.4
2017-08-24T16:45:02.917Z,22.3
2017-08-24T16:50:05.190Z,22.1
2017-08-24T16:55:02.964Z,22.1
2017-08-24T17:00:33.067Z,21.8
2017-08-24T17:05:05.356Z,21.8
2017-08-24T17:10:15.210Z,21.7
2017-08-24T17:15:07.981Z,21.6
2017-08-24T17:20:02.807Z,21.6
2017-08-24T17:25:07.656Z,21.5
2017-08-24T17:30:07.466Z,21.4
2017-08-24T17:35:10.828Z,21.2
2017-08-24T17:40:28.368Z,21.3
2017-08-24T17:45:05.638Z,21.2
2017-08-24T17:50:02.420Z,21.2
2017-08-24T17:55:08.359Z,21.1
2017-08-24T18:00:03.113Z,21.1
2017-08-24T18:05:12.984Z,20.9
2017-08-24T18:10:08.266Z,20.7
2017-08-24T18:15:13.166Z,20.6
2017-08-24T18:20:08.019Z,20.4
2017-08-24T18:25:05.373Z,20.4
2017-08-24T18:30:05.877Z,20.3
2017-08-24T18:35:05.141Z,20.2
2017-08-24T18:40:05.908Z,20.1
2017-08-24T18:45:35.552Z,20
2017-08-24T18:50:05.857Z,20
2017-08-24T18:55:05.140Z,19.8
2017-08-24T19:00:02.927Z,19.8
2017-08-24T19:05:10.283Z,19.6
2017-08-24T19:10:08.024Z,19.6
2017-08-24T19:15:05.301Z,19.5
2017-08-24T19:20:03.145Z,19.5
2017-08-24T19:25:05.425Z,19.3
2017-08-24T19:30:05.701Z,19.3
2017-08-24T19:35:02.445Z,19.3
2017-08-24T19:40:02.681Z,19.2
2017-08-24T19:45:02.426Z,19.2
2017-08-24T19:50:03.207Z,19.1
2017-08-24T19:55:25.744Z,18.9
2017-08-24T20:00:12.580Z,18.8
2017-08-24T20:05:03.357Z,18.9
2017-08-24T20:10:10.185Z,18.7
2017-08-24T20:15:02.937Z,18.8
2017-08-24T20:25:02.402Z,18.6
2017-08-24T20:30:08.233Z,18.5
2017-08-24T20:35:02.949Z,18.5
2017-08-24T20:40:08.266Z,18.3
2017-08-24T20:45:05.565Z,18.3
2017-08-24T20:50:08.363Z,18.3
2017-08-24T20:55:05.611Z,18.2
2017-08-24T21:00:04.906Z,18.2
2017-08-24T21:05:10.265Z,18.1
2017-08-24T21:10:17.710Z,18.1
2017-08-24T21:15:02.443Z,18.1
2017-08-24T21:20:05.776Z,18.1
2017-08-24T21:25:07.606Z,18.1
2017-08-24T21:30:07.409Z,18.1
2017-08-24T21:35:03.150Z,18.1
2017-08-24T21:40:15.081Z,18
2017-08-24T21:45:02.842Z,18
2017-08-24T21:50:17.760Z,17.9
2017-08-24T21:55:17.689Z,17.9
2017-08-24T22:05:08.135Z,17.9
2017-08-24T22:10:08.406Z,17.8
2017-08-24T22:15:03.164Z,17.8
2017-08-24T22:20:02.987Z,17.8
2017-08-24T22:25:10.347Z,17.7
2017-08-24T22:30:03.081Z,17.7
2017-08-24T22:35:18.058Z,17.7
2017-08-24T22:40:05.761Z,17.6
2017-08-24T22:45:07.576Z,17.6
2017-08-24T22:50:18.520Z,17.5
2017-08-24T22:55:23.496Z,17.5
2017-08-24T23:00:05.781Z,17.2
2017-08-24T23:05:05.063Z,17.4
2017-08-24T23:10:05.838Z,17.3
2017-08-24T23:15:10.235Z,17.3
2017-08-24T23:20:03.044Z,17.3
2017-08-24T23:25:02.781Z,17.3
2017-08-24T23:30:02.527Z,17.2
2017-08-24T23:35:03.259Z,17.2
2017-08-24T23:40:02.495Z,17.1
2017-08-24T23:45:03.256Z,17.1
2017-08-24T23:50:02.977Z,17.1
2017-08-24T23:55:05.274Z,17
